Time;durP1;ratioP1;P1;durP2;ratioP2;P2;SDS_P1;SDS_P2;PMS_P1;PMS_P2;Temp;Humidity;BMP_temperature;BMP_pressure;BME280_temperature;BME280_humidity;BME280_pressure;Samples;Min_cycle;Max_cycle;Signal;HPM_P1;HPM_P2
2021/10/15 00:04:08;;;;;;;20.85;14.82;;;;;;;12.34;88.73;101177.38;10258936;28;20482;-69
2021/10/15 00:09:05;;;;;;;21.58;15.48;;;;;;;12.31;89.16;101165.09;10264809;28;20075;-69
2021/10/15 00:14:02;;;;;;;23.38;15.95;;;;;;;12.30;88.73;101166.25;10268399;28;20125;-69
2021/10/15 00:18:58;;;;;;;21.48;16.77;;;;;;;12.30;88.95;101149.78;10262619;28;20041;-69
2021/10/15 00:23:55;;;;;;;22.50;14.68;;;;;;;12.34;88.18;101158.97;10267472;28;20067;-68
2021/10/15 00:28:51;;;;;;;19.58;14.75;;;;;;;12.33;88.19;101132.69;10259798;28;20468;-69
2021/10/15 00:33:48;;;;;;;21.05;14.98;;;;;;;12.38;87.82;101127.06;10260863;28;20564;-69
2021/10/15 00:38:44;;;;;;;19.90;15.30;;;;;;;12.42;87.58;101122.56;10266395;28;20045;-69
2021/10/15 00:44:00;;;;;;;20.88;14.13;;;;;;;12.43;87.36;101110.44;10266565;28;20040;-69
2021/10/15 00:48:57;;;;;;;23.70;15.63;;;;;;;12.45;87.38;101107.38;10249899;28;20566;-69
2021/10/15 00:53:53;;;;;;;21.92;16.08;;;;;;;12.46;87.54;101098.00;10259811;28;20095;-69
2021/10/15 00:58:50;;;;;;;22.30;16.98;;;;;;;12.44;87.75;101094.81;10257998;28;20115;-69
2021/10/15 01:03:47;;;;;;;24.23;16.48;;;;;;;12.46;87.75;101091.72;10261570;28;20044;-70
2021/10/15 01:08:48;;;;;;;23.27;17.05;;;;;;;12.49;87.51;101077.41;10265767;28;20403;-70
2021/10/15 01:13:45;;;;;;;24.30;18.27;;;;;;;12.48;87.14;101067.53;10267485;28;20044;-69
2021/10/15 01:18:44;;;;;;;25.95;18.45;;;;;;;12.43;87.60;101066.56;10261082;28;20076;-69
2021/10/15 01:23:41;;;;;;;22.90;18.95;;;;;;;12.41;87.87;101052.38;10259323;28;20044;-69
2021/10/15 01:28:37;;;;;;;25.92;19.88;;;;;;;12.39;88.02;101054.66;10212187;28;20085;-69
2021/10/15 01:33:34;;;;;;;26.70;22.02;;;;;;;12.40;88.55;101052.69;10237529;28;20128;-69
2021/10/15 01:38:31;;;;;;;27.10;22.00;;;;;;;12.38;88.92;101036.56;10266580;28;20049;-68
2021/10/15 01:43:30;;;;;;;30.95;22.20;;;;;;;12.39;88.77;101021.75;10254463;28;20092;-69
2021/10/15 01:48:26;;;;;;;28.70;21.70;;;;;;;12.42;88.73;101014.81;10256775;28;20069;-69
2021/10/15 01:53:23;;;;;;;28.27;22.30;;;;;;;12.41;88.79;101008.47;10256759;28;20076;-70
2021/10/15 01:58:24;;;;;;;29.23;22.08;;;;;;;12.41;88.57;101004.94;10261490;28;20045;-68
2021/10/15 02:03:21;;;;;;;26.08;20.58;;;;;;;12.41;88.25;100980.25;10261298;28;20080;-68
2021/10/15 02:08:17;;;;;;;28.98;22.92;;;;;;;12.41;88.84;100974.78;10265478;28;20041;-68
2021/10/15 02:13:14;;;;;;;30.67;23.20;;;;;;;12.39;88.25;100961.41;10262639;28;20658;-69
2021/10/15 02:18:11;;;;;;;30.60;23.92;;;;;;;12.39;88.52;100949.63;10253625;28;20044;-69
2021/10/15 02:23:08;;;;;;;27.70;21.98;;;;;;;12.38;88.00;100954.31;10261627;28;20073;-69
2021/10/15 02:28:05;;;;;;;31.88;23.38;;;;;;;12.40;87.92;100945.75;10257095;28;20045;-69
2021/10/15 02:33:02;;;;;;;26.33;21.52;;;;;;;12.37;87.67;100925.28;10257782;28;20103;-68
2021/10/15 02:38:02;;;;;;;26.63;21.90;;;;;;;12.38;87.46;100907.69;10258287;28;20091;-68
2021/10/15 02:42:58;;;;;;;28.15;21.50;;;;;;;12.39;87.28;100912.06;10266757;28;20067;-69
2021/10/15 02:47:55;;;;;;;24.65;19.23;;;;;;;12.39;86.72;100890.13;10261610;28;20076;-69
2021/10/15 02:52:51;;;;;;;28.60;17.92;;;;;;;12.38;86.64;100893.19;10269603;28;20045;-69
2021/10/15 02:57:48;;;;;;;21.85;16.92;;;;;;;12.39;86.20;100890.13;10265411;28;20111;-70
2021/10/15 03:02:44;;;;;;;21.95;17.58;;;;;;;12.43;85.82;100869.13;10278582;28;20049;-69
2021/10/15 03:07:41;;;;;;;22.23;16.38;;;;;;;12.45;85.84;100862.53;10265252;28;20106;-69
2021/10/15 03:12:38;;;;;;;22.15;15.63;;;;;;;12.42;85.46;100864.78;10248712;28;20053;-68
2021/10/15 03:17:34;;;;;;;24.80;15.38;;;;;;;12.43;85.31;100876.53;10267608;28;20086;-68
2021/10/15 03:22:31;;;;;;;22.13;16.90;;;;;;;12.46;85.79;100850.41;10269986;28;20725;-68
2021/10/15 03:27:27;;;;;;;22.70;18.13;;;;;;;12.47;85.61;100846.53;10262155;28;20068;-68
2021/10/15 03:32:24;;;;;;;23.15;17.33;;;;;;;12.46;85.89;100844.91;10266011;28;20275;-68
2021/10/15 03:37:20;;;;;;;27.45;18.58;;;;;;;12.40;86.32;100836.88;10259450;28;20755;-68
2021/10/15 03:42:17;;;;;;;23.92;17.92;;;;;;;12.40;86.26;100830.59;10263371;28;20132;-68
2021/10/15 03:47:13;;;;;;;29.15;20.02;;;;;;;12.37;86.78;100821.09;10253959;28;20542;-69
2021/10/15 03:52:10;;;;;;;29.23;19.27;;;;;;;12.35;86.76;100812.38;10267333;28;20454;-69
2021/10/15 03:57:07;;;;;;;22.63;18.10;;;;;;;12.34;86.82;100810.75;10262879;28;20072;-68
2021/10/15 04:02:04;;;;;;;24.30;17.58;;;;;;;12.36;86.51;100813.97;10266924;28;20068;-68
2021/10/15 04:07:01;;;;;;;26.55;17.77;;;;;;;12.38;86.17;100799.94;10262760;28;20051;-69
2021/10/15 04:11:57;;;;;;;24.42;18.02;;;;;;;12.34;86.33;100783.34;10268933;28;20049;-69
2021/10/15 04:16:54;;;;;;;26.80;17.58;;;;;;;12.32;85.60;100780.16;10263854;28;20044;-69
2021/10/15 04:21:50;;;;;;;22.02;16.42;;;;;;;12.29;85.53;100786.25;10266552;28;20053;-69
2021/10/15 04:26:48;;;;;;;24.95;14.38;;;;;;;12.27;85.32;100772.06;10258107;28;20077;-68
2021/10/15 04:31:44;;;;;;;17.15;13.93;;;;;;;12.27;84.87;100768.53;10264283;28;20160;-70
2021/10/15 04:36:42;;;;;;;19.88;14.88;;;;;;;12.25;84.84;100765.31;10242938;28;20136;-72
2021/10/15 04:41:38;;;;;;;21.35;14.93;;;;;;;12.25;84.58;100746.13;10256121;28;20106;-70
2021/10/15 04:46:35;;;;;;;21.13;15.45;;;;;;;12.25;85.16;100746.13;10261563;28;20080;-71
2021/10/15 04:51:31;;;;;;;20.77;14.48;;;;;;;12.29;84.75;100745.13;10257604;28;20140;-72
2021/10/15 04:56:29;;;;;;;24.25;14.25;;;;;;;12.30;84.49;100737.72;10257503;28;20068;-73
2021/10/15 05:01:25;;;;;;;22.63;14.90;;;;;;;12.33;84.55;100731.59;10252645;28;20537;-72
2021/10/15 05:06:22;;;;;;;19.35;14.20;;;;;;;12.30;84.90;100733.06;10244398;28;20110;-72
2021/10/15 05:11:20;;;;;;;22.13;14.98;;;;;;;12.29;84.69;100725.94;10249039;28;20048;-72
2021/10/15 05:16:18;;;;;;;23.50;15.68;;;;;;;12.27;85.49;100714.50;10254496;28;20049;-73
2021/10/15 05:21:15;;;;;;;21.45;15.25;;;;;;;12.15;87.41;100703.44;10260499;28;20071;-74
2021/10/15 05:26:11;;;;;;;26.48;18.33;;;;;;;12.04;87.69;100702.19;10257217;28;20041;-73
2021/10/15 05:31:08;;;;;;;22.70;15.63;;;;;;;11.97;89.17;100714.47;10248301;28;20076;-74
2021/10/15 05:36:04;;;;;;;27.88;18.30;;;;;;;12.02;88.71;100677.03;10256386;28;20156;-70
2021/10/15 05:41:00;;;;;;;31.17;19.25;;;;;;;12.03;88.79;100667.72;10260721;28;20053;-74
2021/10/15 05:45:57;;;;;;;22.65;17.45;;;;;;;12.05;88.58;100673.66;10258180;28;20037;-72
2021/10/15 05:50:53;;;;;;;27.15;17.45;;;;;;;12.00;89.26;100675.44;10254541;28;20091;-74
2021/10/15 06:01:02;;;;;;;24.10;17.25;;;;;;;11.98;89.30;100644.84;10257573;28;20048;-74
2021/10/15 06:16:14;;;;;;;31.50;19.83;;;;;;;11.71;93.78;100656.19;10255088;28;20123;-74
2021/10/15 06:21:10;;;;;;;28.83;19.80;;;;;;;11.62;95.46;100630.75;10269109;28;20040;-75
2021/10/15 06:26:07;;;;;;;26.27;20.83;;;;;;;11.59;96.44;100626.72;10261639;28;20049;-75
2021/10/15 06:31:03;;;;;;;26.08;16.95;;;;;;;11.52;96.74;100631.91;10268207;28;20079;-73
2021/10/15 06:36:00;;;;;;;26.25;19.73;;;;;;;11.56;97.73;100622.72;10267158;28;20475;-75
2021/10/15 06:40:57;;;;;;;29.45;21.38;;;;;;;11.54;98.72;100627.72;10248449;28;20460;-72
2021/10/15 06:45:53;;;;;;;31.42;24.50;;;;;;;11.45;99.68;100689.91;10225877;28;20075;-71
2021/10/15 06:50:50;;;;;;;23.00;14.27;;;;;;;11.26;100.00;100706.66;10268354;28;20065;-73
2021/10/15 06:55:47;;;;;;;15.30;9.68;;;;;;;11.20;100.00;100742.72;10263642;28;20041;-73
2021/10/15 07:00:44;;;;;;;6.60;3.22;;;;;;;10.99;100.00;100776.19;10269664;28;20049;-74
2021/10/15 07:05:42;;;;;;;7.60;2.55;;;;;;;10.84;100.00;100793.84;10268863;28;20041;-73
2021/10/15 07:10:39;;;;;;;5.32;1.77;;;;;;;10.67;100.00;100805.53;10271077;28;20095;-73
2021/10/15 07:15:35;;;;;;;6.95;1.10;;;;;;;10.59;99.38;100811.78;10262848;28;20047;-73
2021/10/15 07:20:32;;;;;;;3.92;0.75;;;;;;;10.35;98.93;100831.28;10264139;28;20049;-74
2021/10/15 07:25:28;;;;;;;4.07;0.77;;;;;;;10.30;98.73;100834.97;10267864;28;20461;-73
2021/10/15 07:30:25;;;;;;;2.97;0.75;;;;;;;10.29;99.37;100868.84;10252803;28;20125;-74
2021/10/15 07:35:21;;;;;;;7.57;1.05;;;;;;;10.29;100.00;100904.38;10256299;28;20436;-74
2021/10/15 07:40:18;;;;;;;2.50;0.50;;;;;;;10.31;98.85;100917.75;10262756;28;20085;-73
2021/10/15 07:45:15;;;;;;;3.03;0.70;;;;;;;10.25;99.27;100918.94;10260570;28;20132;-75
2021/10/15 07:50:28;;;;;;;3.83;0.70;;;;;;;10.17;98.87;100923.25;10262980;28;20073;-74
2021/10/15 07:55:25;;;;;;;4.30;0.80;;;;;;;10.19;97.92;100942.88;10260258;28;20041;-73
2021/10/15 08:00:21;;;;;;;3.42;0.65;;;;;;;10.13;96.91;100948.75;10252877;28;20045;-74
2021/10/15 08:05:19;;;;;;;2.75;0.60;;;;;;;10.09;97.04;100943.09;10260450;28;20048;-74
2021/10/15 08:10:15;;;;;;;6.88;0.82;;;;;;;9.99;96.03;100935.94;10261416;28;20095;-74
2021/10/15 08:15:14;;;;;;;5.68;0.90;;;;;;;10.08;96.72;100927.84;10265549;28;20098;-74
2021/10/15 08:20:13;;;;;;;8.13;1.25;;;;;;;10.16;97.28;100959.88;10264015;28;20135;-73
2021/10/15 08:25:15;;;;;;;4.70;0.80;;;;;;;10.02;97.15;100965.38;10261856;28;20052;-74
2021/10/15 08:30:12;;;;;;;6.45;1.58;;;;;;;10.10;96.95;100993.91;10265389;28;20691;-74
2021/10/15 08:35:10;;;;;;;6.25;1.00;;;;;;;10.00;96.36;100975.00;10262600;28;20053;-74
2021/10/15 08:40:08;;;;;;;5.97;1.55;;;;;;;10.06;96.40;100992.91;10257760;28;20056;-73
2021/10/15 08:45:05;;;;;;;6.07;0.82;;;;;;;10.08;96.34;101001.59;10262802;28;20064;-72
2021/10/15 08:50:02;;;;;;;5.70;1.10;;;;;;;10.10;96.96;101040.34;10259044;28;20041;-74
2021/10/15 08:54:59;;;;;;;8.60;1.58;;;;;;;10.14;97.45;101065.94;10263789;28;20087;-73
2021/10/15 08:59:55;;;;;;;6.57;1.02;;;;;;;10.03;97.82;101072.75;10256635;28;20128;-73
2021/10/15 09:04:54;;;;;;;4.90;0.88;;;;;;;9.94;98.82;101039.06;10260764;28;20072;-73
2021/10/15 09:10:16;;;;;;;9.35;1.30;;;;;;;10.00;98.11;101021.44;10255333;28;20041;-73
2021/10/15 09:15:16;;;;;;;11.63;1.60;;;;;;;10.06;98.25;101053.00;10246432;28;20060;-75
2021/10/15 09:20:25;;;;;;;10.93;1.83;;;;;;;10.13;99.49;101058.84;10256607;28;20045;-74
2021/10/15 09:25:40;;;;;;;11.25;1.30;;;;;;;10.20;97.56;101086.56;10251271;28;20038;-73
2021/10/15 09:30:40;;;;;;;9.15;1.30;;;;;;;10.28;96.75;101105.03;10263388;28;20041;-74
2021/10/15 09:35:37;;;;;;;7.20;1.40;;;;;;;10.38;98.46;101105.91;10257249;28;20503;-73
2021/10/15 09:40:34;;;;;;;8.93;1.73;;;;;;;10.40;97.59;101117.34;10261465;28;20067;-74
2021/10/15 09:45:36;;;;;;;13.05;1.40;;;;;;;10.40;97.05;101096.28;10248312;28;20052;-74
2021/10/15 09:50:35;;;;;;;8.50;2.00;;;;;;;10.40;97.24;101107.22;10258825;28;20040;-74
2021/10/15 09:55:42;;;;;;;7.75;1.77;;;;;;;10.43;97.60;101127.66;10254907;28;20049;-74
2021/10/15 10:00:39;;;;;;;10.00;1.90;;;;;;;10.43;97.18;101139.41;10254261;28;20693;-74
2021/10/15 10:05:37;;;;;;;12.80;2.25;;;;;;;10.37;97.30;101139.81;10255935;28;20045;-73
2021/10/15 10:10:38;;;;;;;13.73;2.08;;;;;;;10.47;97.25;101145.88;10259028;28;20065;-74
2021/10/15 10:15:38;;;;;;;17.30;2.70;;;;;;;10.61;98.96;101151.31;10256007;28;20041;-72
2021/10/15 10:20:37;;;;;;;17.70;2.45;;;;;;;10.71;98.03;101151.09;10253976;28;20094;-73
2021/10/15 10:25:35;;;;;;;15.10;1.77;;;;;;;10.78;97.29;101156.13;10257857;28;20045;-73
2021/10/15 10:30:41;;;;;;;13.32;2.30;;;;;;;10.92;96.71;101167.03;10255900;28;20052;-73
2021/10/15 10:35:38;;;;;;;13.82;2.33;;;;;;;10.92;92.83;101151.44;10264516;28;20091;-72
2021/10/15 10:40:35;;;;;;;21.48;3.00;;;;;;;11.04;91.88;101153.59;10255814;28;20083;-73
2021/10/15 10:45:31;;;;;;;14.48;1.95;;;;;;;11.10;89.09;101163.31;10256042;28;20049;-74
2021/10/15 10:50:28;;;;;;;13.27;2.30;;;;;;;11.25;87.74;101153.13;10261900;28;20076;-73
2021/10/15 10:55:34;;;;;;;16.23;2.15;;;;;;;11.43;86.10;101160.34;10260289;28;20404;-73
2021/10/15 11:00:30;;;;;;;18.73;2.38;;;;;;;11.50;84.14;101171.66;10257683;28;20064;-74
2021/10/15 11:05:32;;;;;;;18.35;2.20;;;;;;;11.55;83.48;101176.97;10259534;28;20414;-73
2021/10/15 11:10:29;;;;;;;18.70;2.92;;;;;;;11.53;79.86;101182.00;10268716;28;20103;-73
2021/10/15 11:15:28;;;;;;;20.45;3.05;;;;;;;11.75;80.67;101199.50;10262269;28;20040;-74
2021/10/15 11:20:32;;;;;;;16.92;2.17;;;;;;;11.75;81.44;101208.53;10255798;28;20163;-74
2021/10/15 11:25:40;;;;;;;17.88;2.75;;;;;;;11.87;83.15;101218.94;10257445;28;20052;-74
2021/10/15 11:30:44;;;;;;;18.73;3.17;;;;;;;11.85;79.17;101215.66;10248014;28;20447;-73
2021/10/15 11:35:43;;;;;;;14.68;1.98;;;;;;;11.86;75.80;101233.75;10246715;28;20507;-74
2021/10/15 11:40:43;;;;;;;21.85;2.83;;;;;;;12.06;75.67;101226.94;10265853;28;20041;-73
2021/10/15 11:45:45;;;;;;;9.95;1.10;;;;;;;12.28;71.57;101233.50;10270375;28;20669;-74
2021/10/15 11:50:54;;;;;;;18.30;2.53;;;;;;;12.59;73.20;101242.44;10244857;28;20045;-74
2021/10/15 11:55:51;;;;;;;16.27;2.47;;;;;;;12.64;71.51;101236.81;10258743;28;20739;-74
2021/10/15 12:01:07;;;;;;;13.43;1.73;;;;;;;12.47;72.48;101235.97;10267616;28;20073;-72
2021/10/15 12:06:18;;;;;;;12.63;1.77;;;;;;;12.32;70.18;101235.28;10255679;28;20042;-74
2021/10/15 12:11:18;;;;;;;11.38;2.92;;;;;;;12.52;68.47;101249.53;10260442;28;20076;-72
2021/10/15 12:16:26;;;;;;;9.90;1.20;;;;;;;12.85;66.90;101253.47;10253157;28;20073;-74
2021/10/15 12:21:32;;;;;;;10.82;1.67;;;;;;;12.96;64.69;101253.19;10252630;28;20098;-74
2021/10/15 12:26:29;;;;;;;7.93;1.65;;;;;;;13.29;65.36;101261.78;10249635;28;20072;-74
2021/10/15 12:31:29;;;;;;;12.32;1.98;;;;;;;13.66;65.13;101268.56;10249309;28;20041;-74
2021/10/15 12:36:25;;;;;;;6.70;1.30;;;;;;;13.84;64.71;101274.03;10262554;28;20522;-73
2021/10/15 12:41:25;;;;;;;13.52;1.65;;;;;;;13.75;62.82;101273.25;10257934;28;20171;-74
2021/10/15 12:46:22;;;;;;;14.02;2.00;;;;;;;13.97;63.58;101274.97;10259362;28;20045;-74
2021/10/15 12:51:19;;;;;;;14.07;1.98;;;;;;;14.42;61.80;101280.81;10250844;28;20045;-74
2021/10/15 12:56:23;;;;;;;14.13;2.05;;;;;;;14.12;62.58;101288.22;10257238;28;20446;-74
2021/10/15 13:01:30;;;;;;;17.85;2.00;;;;;;;13.47;63.31;101277.16;10257229;28;20132;-72
2021/10/15 13:06:28;;;;;;;15.40;2.40;;;;;;;13.33;64.63;101289.44;10259980;28;20095;-72
2021/10/15 13:11:26;;;;;;;14.65;3.00;;;;;;;13.61;64.61;101290.72;10255116;28;20434;-73
2021/10/15 13:16:23;;;;;;;15.00;2.22;;;;;;;13.76;64.64;101300.41;10267553;28;20049;-74
2021/10/15 13:21:20;;;;;;;13.02;2.05;;;;;;;13.91;63.66;101310.09;10264925;28;20083;-74
2021/10/15 13:26:16;;;;;;;16.38;1.75;;;;;;;13.85;62.80;101316.88;10264506;28;20065;-75
2021/10/15 13:31:32;;;;;;;18.08;3.35;;;;;;;13.73;64.66;101324.97;10262583;28;20048;-73
2021/10/15 13:36:30;;;;;;;22.08;2.60;;;;;;;13.49;63.84;101331.78;10254225;28;20095;-73
2021/10/15 13:41:57;;;;;;;13.48;1.98;;;;;;;13.70;64.74;101328.38;10255218;28;20037;-72
2021/10/15 13:47:07;;;;;;;20.20;2.75;;;;;;;13.85;64.00;101327.88;10253878;28;20151;-74
2021/10/15 13:52:04;;;;;;;15.10;2.50;;;;;;;13.45;65.15;101348.06;10247942;28;20091;-74
2021/10/15 13:57:04;;;;;;;15.95;2.50;;;;;;;13.18;64.93;101351.91;10252355;28;20064;-73
2021/10/15 14:02:06;;;;;;;17.42;2.63;;;;;;;13.49;63.93;101348.25;10256684;28;20045;-72
2021/10/15 14:07:03;;;;;;;19.33;2.85;;;;;;;13.47;62.58;101350.50;10250264;28;20076;-72
2021/10/15 14:11:59;;;;;;;11.93;1.88;;;;;;;13.42;62.43;101358.91;10255224;28;20068;-71
2021/10/15 14:17:07;;;;;;;20.75;2.38;;;;;;;13.57;63.32;101355.69;10250608;28;20422;-74
2021/10/15 14:22:05;;;;;;;15.15;2.28;;;;;;;13.61;63.51;101364.91;10251188;28;20045;-73
2021/10/15 14:27:07;;;;;;;17.17;2.63;;;;;;;13.56;64.25;101365.06;10244030;28;20030;-74
2021/10/15 14:32:04;;;;;;;15.73;2.22;;;;;;;13.55;64.14;101374.41;10248131;28;20072;-72
2021/10/15 14:37:01;;;;;;;17.92;2.75;;;;;;;13.67;64.31;101382.84;10261163;28;20045;-73
2021/10/15 14:41:57;;;;;;;14.15;2.22;;;;;;;13.57;64.37;101388.66;10264669;28;20095;-73
2021/10/15 14:47:03;;;;;;;16.95;2.75;;;;;;;13.59;64.28;101391.88;10254963;28;20412;-74
2021/10/15 14:52:00;;;;;;;19.30;3.28;;;;;;;13.70;63.48;101397.88;10252599;28;20045;-74
2021/10/15 14:56:56;;;;;;;18.70;2.85;;;;;;;13.68;62.39;101411.94;10257655;28;20067;-73
2021/10/15 15:01:53;;;;;;;11.52;1.50;;;;;;;13.28;64.33;101421.41;10265513;28;20044;-73
2021/10/15 15:06:49;;;;;;;9.88;1.17;;;;;;;12.79;63.96;101438.63;10265200;28;20064;-73
2021/10/15 15:11:46;;;;;;;12.00;1.52;;;;;;;12.66;66.87;101420.31;10264345;28;20068;-74
2021/10/15 15:16:42;;;;;;;11.52;2.40;;;;;;;12.45;66.99;101431.00;10252803;28;20045;-74
2021/10/15 15:21:39;;;;;;;12.73;2.80;;;;;;;12.41;67.38;101430.00;10259305;28;20137;-74
2021/10/15 15:26:35;;;;;;;9.65;1.77;;;;;;;12.29;65.26;101427.84;10274927;28;20079;-72
2021/10/15 15:31:32;;;;;;;13.18;1.75;;;;;;;12.31;63.95;101435.75;10266991;28;20048;-73
2021/10/15 15:36:29;;;;;;;10.32;1.65;;;;;;;12.24;63.39;101447.16;10254876;28;20099;-74
2021/10/15 15:41:25;;;;;;;17.67;1.88;;;;;;;12.18;64.05;101454.69;10259903;28;20110;-74
2021/10/15 15:46:22;;;;;;;14.48;3.53;;;;;;;12.17;65.03;101474.19;10267946;28;20087;-73
2021/10/15 15:51:18;;;;;;;12.18;2.13;;;;;;;12.04;65.71;101470.38;10255466;28;20466;-72
2021/10/15 15:56:15;;;;;;;10.82;1.90;;;;;;;11.98;66.32;101477.91;10265598;28;20067;-74
2021/10/15 16:01:15;;;;;;;17.73;2.83;;;;;;;11.95;67.17;101486.75;10260817;28;20077;-73
2021/10/15 16:06:11;;;;;;;11.98;1.90;;;;;;;11.85;67.09;101495.16;10262630;28;20049;-74
2021/10/15 16:11:08;;;;;;;11.65;1.88;;;;;;;11.78;67.47;101511.19;10254559;28;20068;-75
2021/10/15 16:16:04;;;;;;;14.77;2.08;;;;;;;11.76;68.35;101518.91;10252493;28;20083;-74
2021/10/15 16:21:01;;;;;;;13.80;3.05;;;;;;;11.61;68.70;101511.03;10266436;28;20821;-72
2021/10/15 16:25:58;;;;;;;13.63;2.38;;;;;;;11.63;69.25;101525.19;10259297;28;20549;-73
2021/10/15 16:30:54;;;;;;;24.35;3.92;;;;;;;11.63;69.83;101530.69;10268819;28;20077;-74
2021/10/15 16:35:50;;;;;;;17.15;3.17;;;;;;;11.56;70.58;101542.88;10263599;28;20041;-74
2021/10/15 16:40:47;;;;;;;16.75;2.40;;;;;;;11.57;71.08;101555.44;10258664;28;20045;-73
2021/10/15 16:45:43;;;;;;;18.40;2.53;;;;;;;11.50;71.94;101552.28;10259976;28;20075;-74
2021/10/15 16:50:40;;;;;;;18.25;2.45;;;;;;;11.40;73.04;101560.72;10253347;28;20045;-74
2021/10/15 16:55:36;;;;;;;16.95;2.20;;;;;;;11.43;72.93;101565.56;10255410;28;20053;-73
2021/10/15 17:00:33;;;;;;;11.23;2.00;;;;;;;11.40;73.53;101577.16;10251226;28;20060;-73
2021/10/15 17:05:31;;;;;;;13.02;2.00;;;;;;;11.31;74.20;101587.97;10259783;28;20410;-71
2021/10/15 17:10:28;;;;;;;15.60;2.20;;;;;;;11.36;74.28;101595.28;10268536;28;20498;-74
2021/10/15 17:15:24;;;;;;;18.23;2.83;;;;;;;11.33;73.62;101604.13;10250774;28;20106;-74
2021/10/15 17:20:21;;;;;;;12.25;2.47;;;;;;;11.24;73.99;101605.91;10249181;28;20072;-72
2021/10/15 17:25:17;;;;;;;18.90;2.80;;;;;;;11.13;74.00;101619.75;10257717;28;20049;-72
2021/10/15 17:30:14;;;;;;;10.65;2.47;;;;;;;11.12;74.04;101622.81;10249759;28;20049;-73
2021/10/15 17:35:11;;;;;;;15.05;4.22;;;;;;;11.04;74.18;101629.75;10248958;28;20045;-73
2021/10/15 17:40:08;;;;;;;9.27;2.17;;;;;;;11.02;75.00;101636.66;10253658;28;20072;-71
2021/10/15 17:45:05;;;;;;;18.60;3.63;;;;;;;11.03;74.61;101639.09;10262725;28;20136;-72
2021/10/15 17:50:03;;;;;;;16.63;3.40;;;;;;;10.98;75.89;101652.88;10256798;28;20084;-72
2021/10/15 17:54:59;;;;;;;13.07;1.77;;;;;;;10.89;75.57;101649.19;10254369;28;20071;-73
2021/10/15 17:59:55;;;;;;;13.63;2.83;;;;;;;10.82;76.67;101662.41;10259170;28;20037;-72
2021/10/15 18:05:05;;;;;;;14.75;3.00;;;;;;;10.79;76.67;101660.25;10264820;28;20099;-72
2021/10/15 18:10:02;;;;;;;25.33;4.82;;;;;;;10.70;77.52;101671.88;10269522;28;20072;-73
2021/10/15 18:14:59;;;;;;;15.80;3.00;;;;;;;10.71;77.78;101665.28;10260527;28;20075;-72
2021/10/15 18:19:56;;;;;;;14.10;2.60;;;;;;;10.59;78.47;101673.13;10255698;28;20554;-74
2021/10/15 18:24:52;;;;;;;16.65;3.67;;;;;;;10.65;78.10;101671.97;10259055;28;20535;-73
2021/10/15 18:29:49;;;;;;;19.77;3.08;;;;;;;10.62;78.22;101678.00;10255534;28;20710;-73
2021/10/15 18:34:49;;;;;;;14.20;2.85;;;;;;;10.55;78.71;101677.53;10255419;28;20080;-73
2021/10/15 18:39:45;;;;;;;18.50;3.60;;;;;;;10.39;79.67;101687.06;10254023;28;20045;-73
2021/10/15 18:44:42;;;;;;;20.98;4.00;;;;;;;10.45;79.61;101694.09;10264658;28;20077;-72
2021/10/15 18:49:38;;;;;;;19.05;4.63;;;;;;;10.40;80.31;101694.16;10246650;28;20041;-75
2021/10/15 18:54:35;;;;;;;23.33;6.05;;;;;;;10.29;80.79;101686.06;10254870;28;20037;-75
2021/10/15 18:59:31;;;;;;;21.52;3.85;;;;;;;10.25;81.38;101695.94;10249250;28;20505;-75
2021/10/15 19:04:28;;;;;;;26.40;4.13;;;;;;;10.22;82.02;101702.00;10256797;28;20503;-75
2021/10/15 19:09:25;;;;;;;16.75;3.10;;;;;;;10.23;81.67;101713.72;10259489;28;20421;-74
2021/10/15 19:14:22;;;;;;;23.88;3.30;;;;;;;10.20;81.88;101725.25;10260005;28;20431;-73
2021/10/15 19:19:18;;;;;;;16.60;3.78;;;;;;;10.15;81.53;101728.84;10258166;28;20044;-74
2021/10/15 19:24:18;;;;;;;17.55;3.05;;;;;;;10.16;80.85;101725.00;10265051;28;20138;-70
2021/10/15 19:29:14;;;;;;;26.17;3.63;;;;;;;10.17;80.67;101721.19;10261593;28;20041;-73
2021/10/15 19:34:11;;;;;;;19.75;3.75;;;;;;;10.18;80.55;101722.81;10258066;28;20167;-73
2021/10/15 19:39:08;;;;;;;21.42;3.42;;;;;;;10.24;81.02;101721.66;10258858;28;20080;-73
2021/10/15 19:44:05;;;;;;;17.73;4.30;;;;;;;10.20;81.12;101728.78;10265111;28;20472;-73
2021/10/15 19:49:01;;;;;;;17.25;3.33;;;;;;;10.12;81.80;101732.19;10261501;28;20502;-73
2021/10/15 19:53:58;;;;;;;15.90;3.05;;;;;;;10.21;82.24;101733.16;10255043;28;20041;-73
2021/10/15 19:58:54;;;;;;;21.33;3.42;;;;;;;10.15;81.66;101739.78;10254548;28;20145;-72
2021/10/15 20:03:51;;;;;;;15.85;3.20;;;;;;;10.21;81.86;101744.09;10255321;28;20136;-72
2021/10/15 20:08:48;;;;;;;23.40;3.05;;;;;;;10.26;82.19;101746.78;10264318;28;20067;-73
2021/10/15 20:13:45;;;;;;;16.23;3.10;;;;;;;10.26;82.50;101752.25;10268450;28;20061;-74
2021/10/15 20:18:41;;;;;;;16.15;3.13;;;;;;;10.28;82.57;101755.53;10256294;28;20102;-75
2021/10/15 20:23:38;;;;;;;18.63;4.43;;;;;;;10.27;83.07;101764.78;10243430;28;20045;-74
2021/10/15 20:28:38;;;;;;;22.33;3.80;;;;;;;10.25;82.54;101767.00;10245734;28;20044;-74
2021/10/15 20:33:35;;;;;;;20.27;3.38;;;;;;;10.24;82.53;101772.78;10255277;28;20132;-75
2021/10/15 20:38:31;;;;;;;17.85;3.17;;;;;;;10.18;82.88;101787.59;10258088;28;20064;-75
2021/10/15 20:43:28;;;;;;;18.63;3.25;;;;;;;10.15;82.88;101788.16;10268286;28;20041;-73
2021/10/15 20:48:25;;;;;;;19.55;3.30;;;;;;;10.17;83.29;101792.25;10249556;28;20144;-75
2021/10/15 20:53:21;;;;;;;21.58;3.47;;;;;;;10.14;82.84;101792.78;10261155;28;20133;-74
2021/10/15 20:58:19;;;;;;;17.85;3.03;;;;;;;10.08;83.80;101800.25;10254667;28;20487;-73
2021/10/15 21:03:15;;;;;;;15.35;3.40;;;;;;;9.98;83.31;101807.72;10247672;28;20046;-75
2021/10/15 21:08:12;;;;;;;18.25;3.35;;;;;;;9.96;83.84;101812.66;10263700;28;20048;-74
2021/10/15 21:13:09;;;;;;;18.45;4.45;;;;;;;10.00;83.87;101802.78;10265204;28;20171;-75
2021/10/15 21:18:06;;;;;;;21.30;3.40;;;;;;;9.92;84.23;101820.63;10255761;28;20132;-74
2021/10/15 21:23:02;;;;;;;22.95;2.88;;;;;;;9.80;85.41;101815.53;10256094;28;20069;-73
2021/10/15 21:27:59;;;;;;;18.63;2.88;;;;;;;9.91;84.68;101824.47;10248994;28;20065;-70
2021/10/15 21:32:56;;;;;;;16.35;3.42;;;;;;;9.90;83.96;101826.34;10261893;28;20046;-68
2021/10/15 21:37:52;;;;;;;19.30;3.53;;;;;;;9.89;85.00;101835.66;10248749;28;20561;-68
2021/10/15 21:42:48;;;;;;;18.15;3.00;;;;;;;9.88;84.52;101828.56;10261214;28;20411;-69
2021/10/15 21:47:45;;;;;;;21.70;3.15;;;;;;;9.86;84.42;101830.78;10257457;28;20049;-69
2021/10/15 21:52:42;;;;;;;20.25;3.70;;;;;;;9.85;84.20;101840.06;10257540;28;20048;-69
2021/10/15 21:57:38;;;;;;;15.93;2.92;;;;;;;9.80;84.46;101826.44;10251767;28;20080;-69
2021/10/15 22:02:35;;;;;;;14.00;2.60;;;;;;;9.86;84.46;101840.88;10248343;28;20507;-69
2021/10/15 22:07:31;;;;;;;21.80;3.55;;;;;;;9.84;84.87;101843.91;10252473;28;20574;-69
2021/10/15 22:12:28;;;;;;;22.20;4.38;;;;;;;9.93;85.16;101848.75;10261279;28;20102;-69
2021/10/15 22:17:24;;;;;;;18.00;2.85;;;;;;;9.93;84.92;101846.81;10263147;28;20041;-68
2021/10/15 22:22:21;;;;;;;15.10;2.78;;;;;;;9.86;85.49;101846.31;10255952;28;20053;-69
2021/10/15 22:27:17;;;;;;;14.38;2.97;;;;;;;9.92;85.02;101847.13;10250416;28;20077;-68
2021/10/15 22:32:14;;;;;;;17.67;2.97;;;;;;;9.89;84.86;101846.59;10249261;28;20048;-70
2021/10/15 22:37:10;;;;;;;18.80;2.97;;;;;;;9.95;84.82;101843.81;10248025;28;20095;-68
2021/10/15 22:42:07;;;;;;;14.85;2.47;;;;;;;9.93;84.93;101846.00;10260443;28;20052;-67
2021/10/15 22:47:03;;;;;;;13.90;2.53;;;;;;;9.92;84.50;101850.66;10260915;28;20068;-68
2021/10/15 22:52:00;;;;;;;12.32;2.30;;;;;;;9.90;84.57;101836.47;10249502;28;20041;-67